createdAt,value
2018-10-06T12:34:27.011Z,3.30
2018-10-06T12:35:27.059Z,3.20
2018-10-06T12:36:26.852Z,3.70
2018-10-06T12:37:26.812Z,3.50
2018-10-06T12:38:51.621Z,5.50
2018-10-06T12:39:51.638Z,4.20
2018-10-06T12:40:51.602Z,4.90
2018-10-06T12:41:51.594Z,3.70
2018-10-06T12:42:51.581Z,3.60
2018-10-06T12:43:51.566Z,3.30
2018-10-06T12:44:51.622Z,3.90
2018-10-06T12:45:51.543Z,3.70
2018-10-06T12:46:51.543Z,3.50
2018-10-06T12:47:51.524Z,3.60
2018-10-06T12:48:51.502Z,3.20
2018-10-06T12:49:51.499Z,4.20
2018-10-06T12:50:51.521Z,3.80
2018-10-06T12:51:51.486Z,3.30
2018-10-06T12:52:51.473Z,3.60
2018-10-06T12:53:51.465Z,3.70
2018-10-06T12:54:51.454Z,3.80
2018-10-06T12:55:51.497Z,3.60
2018-10-06T12:56:51.437Z,3.70
2018-10-06T12:57:51.423Z,4.10
2018-10-06T12:58:51.557Z,3.80
2018-10-06T12:59:51.427Z,3.90
2018-10-06T13:00:51.392Z,3.90
2018-10-06T13:01:51.412Z,4.10
2018-10-06T13:02:51.376Z,3.80
2018-10-06T13:03:51.364Z,3.60
2018-10-06T13:04:51.826Z,4.00
2018-10-06T13:05:51.344Z,4.20
2018-10-06T13:06:51.364Z,3.60
2018-10-06T13:07:51.310Z,3.90
2018-10-06T13:08:51.307Z,3.70
2018-10-06T13:09:51.307Z,3.80
2018-10-06T13:10:51.922Z,3.50
2018-10-06T13:11:51.384Z,3.40
2018-10-06T13:12:51.319Z,3.40
2018-10-06T13:13:51.250Z,3.20
2018-10-06T13:14:51.251Z,3.60
2018-10-06T13:15:51.237Z,3.80
2018-10-06T13:16:51.221Z,4.10
2018-10-06T13:17:51.214Z,3.80
2018-10-06T13:18:51.272Z,3.40
2018-10-06T13:19:51.201Z,3.70
2018-10-06T13:20:51.180Z,3.80
2018-10-06T13:21:51.168Z,3.50
2018-10-06T13:22:51.152Z,3.50
2018-10-06T13:23:51.153Z,3.30
2018-10-06T13:24:51.202Z,3.60
2018-10-06T13:25:51.127Z,3.70
2018-10-06T13:26:51.113Z,3.50
2018-10-06T13:27:51.096Z,3.10
2018-10-06T13:28:51.100Z,3.30
2018-10-06T13:29:51.086Z,3.80
2018-10-06T13:30:51.112Z,4.10
2018-10-06T13:31:51.106Z,3.60
2018-10-06T13:32:51.058Z,3.50
2018-10-06T13:33:51.047Z,3.60
2018-10-06T13:34:51.088Z,3.70
2018-10-06T13:35:51.029Z,3.80
2018-10-06T13:36:51.017Z,3.50
2018-10-06T13:37:51.011Z,3.70
2018-10-06T13:38:50.996Z,3.70
2018-10-06T13:39:50.987Z,3.20
2018-10-06T13:40:51.003Z,3.50
2018-10-06T13:41:50.958Z,3.20
2018-10-06T13:42:51.223Z,3.60
2018-10-06T13:43:51.756Z,3.40
2018-10-06T13:44:51.256Z,3.40
2018-10-06T13:45:51.851Z,2.90
2018-10-06T13:46:52.639Z,3.10
2018-10-06T13:47:50.904Z,2.90
2018-10-06T13:48:50.891Z,2.90
2018-10-06T13:49:50.882Z,3.50
2018-10-06T13:50:50.873Z,3.20
2018-10-06T13:51:50.858Z,3.30
2018-10-06T13:52:50.884Z,3.50
2018-10-06T13:53:50.866Z,3.10
2018-10-06T13:54:50.840Z,3.20
2018-10-06T13:55:50.818Z,3.40
2018-10-06T13:56:50.815Z,3.20
2018-10-06T13:57:50.856Z,3.00
2018-10-06T13:58:50.832Z,3.30
2018-10-06T13:59:50.779Z,3.20
2018-10-06T14:00:50.810Z,3.00
2018-10-06T14:01:50.798Z,3.00
2018-10-06T14:02:50.753Z,3.00
2018-10-06T14:03:50.770Z,3.20
2018-10-06T14:04:50.725Z,3.30
2018-10-06T14:05:50.715Z,3.30
2018-10-06T14:06:50.705Z,3.40
2018-10-06T14:07:50.696Z,3.20
2018-10-06T14:08:50.744Z,3.50
2018-10-06T14:09:50.680Z,3.10
2018-10-06T14:10:50.684Z,3.30
2018-10-06T14:11:50.682Z,3.10
2018-10-06T14:12:50.642Z,3.50
2018-10-06T14:13:50.622Z,3.30
2018-10-06T14:14:50.652Z,3.30
2018-10-06T14:15:50.606Z,3.20
2018-10-06T14:16:50.749Z,3.10
2018-10-06T14:17:50.609Z,3.20
2018-10-06T14:18:50.579Z,3.40
2018-10-06T14:19:50.565Z,3.10
2018-10-06T14:20:50.556Z,3.20
2018-10-06T14:21:50.590Z,3.30
2018-10-06T14:22:50.528Z,3.00
2018-10-06T14:23:50.527Z,3.50
2018-10-06T14:24:50.520Z,3.10
2018-10-06T14:25:50.511Z,3.10
2018-10-06T14:26:50.486Z,3.00
2018-10-06T14:27:50.532Z,2.70
2018-10-06T14:28:50.464Z,2.90
2018-10-06T14:29:50.452Z,2.80
2018-10-06T14:30:50.457Z,2.90
2018-10-06T14:31:50.441Z,2.70
2018-10-06T14:32:50.422Z,2.80
2018-10-06T14:33:50.449Z,2.70
2018-10-06T14:34:50.465Z,2.70
2018-10-06T14:35:50.405Z,2.60
2018-10-06T14:36:50.393Z,2.70
2018-10-06T14:37:50.382Z,3.10
2018-10-06T14:38:50.369Z,3.00
2018-10-06T14:39:50.357Z,3.00
2018-10-06T14:40:50.406Z,2.90
2018-10-06T14:41:50.342Z,3.00
2018-10-06T14:42:50.324Z,2.90
2018-10-06T14:43:50.315Z,3.00
2018-10-06T14:44:50.363Z,3.00
2018-10-06T14:45:50.297Z,3.10
2018-10-06T14:46:50.286Z,2.90
2018-10-06T14:47:50.274Z,2.80
2018-10-06T14:48:50.256Z,2.70
2018-10-06T14:49:50.256Z,3.00
2018-10-06T14:50:50.293Z,2.90
2018-10-06T14:51:50.233Z,2.70
2018-10-06T14:52:50.224Z,2.80
2018-10-06T14:53:50.214Z,2.80
2018-10-06T14:54:50.203Z,3.00
2018-10-06T14:55:50.191Z,2.90
2018-10-06T14:56:50.253Z,3.10
2018-10-06T14:57:50.175Z,3.00
2018-10-06T14:58:50.159Z,2.80
2018-10-06T14:59:50.143Z,2.80
2018-10-06T15:00:50.138Z,3.10
2018-10-06T15:01:50.123Z,3.10
2018-10-06T15:02:50.144Z,2.90
2018-10-06T15:03:50.154Z,2.90
2018-10-06T15:04:50.094Z,2.80
2018-10-06T15:05:50.081Z,2.50
2018-10-06T15:06:50.070Z,2.40
2018-10-06T15:07:50.105Z,2.70
2018-10-06T15:08:50.051Z,3.20
2018-10-06T15:09:50.038Z,3.00
2018-10-06T15:10:50.028Z,2.90
2018-10-06T15:11:50.013Z,3.00
2018-10-06T15:12:50.011Z,2.90
2018-10-06T15:13:50.017Z,2.90
2018-10-06T15:14:49.982Z,2.80
2018-10-06T15:15:50.007Z,2.80
2018-10-06T15:16:49.990Z,2.90
2018-10-06T15:17:49.944Z,2.70
2018-10-06T15:18:49.942Z,3.50
2018-10-06T15:19:49.962Z,2.80
2018-10-06T15:20:49.915Z,2.70
2018-10-06T15:21:49.903Z,2.90
2018-10-06T15:22:49.897Z,2.90
2018-10-06T15:23:49.884Z,2.80
2018-10-06T15:24:49.900Z,2.90
2018-10-06T15:25:49.885Z,2.90
2018-10-06T15:26:49.855Z,3.00
2018-10-06T15:27:49.848Z,3.20
2018-10-06T15:28:49.837Z,2.90
2018-10-06T15:29:49.964Z,3.00
2018-10-06T15:30:49.817Z,2.90
2018-10-06T15:31:49.803Z,3.10
2018-10-06T15:32:49.792Z,2.80
2018-10-06T15:33:49.786Z,2.90
2018-10-06T15:34:49.764Z,2.80
2018-10-06T15:35:49.821Z,2.90
2018-10-06T15:36:49.858Z,2.80
2018-10-06T15:37:49.814Z,2.90
2018-10-06T15:38:49.737Z,2.70
2018-10-06T15:39:49.723Z,2.80
2018-10-06T15:40:49.713Z,2.90
2018-10-06T15:41:49.725Z,2.80
2018-10-06T15:42:49.789Z,2.80
2018-10-06T15:43:49.671Z,3.00
2018-10-06T15:44:49.675Z,3.10
2018-10-06T15:45:49.702Z,3.10
2018-10-06T15:46:49.651Z,2.90
2018-10-06T15:47:49.626Z,2.70
2018-10-06T15:48:49.624Z,3.10
2018-10-06T15:49:49.614Z,3.60
2018-10-06T15:50:49.646Z,5.10
2018-10-06T15:51:49.658Z,4.00
2018-10-06T15:52:49.584Z,3.90
2018-10-06T15:53:49.561Z,4.10
2018-10-06T15:54:49.560Z,3.60
2018-10-06T15:55:49.566Z,3.80
2018-10-06T15:56:49.672Z,3.80
2018-10-06T15:57:49.583Z,3.80
2018-10-06T15:58:49.510Z,4.00
2018-10-06T15:59:49.510Z,4.20
2018-10-06T16:00:49.489Z,3.00
2018-10-06T16:01:49.480Z,3.50
2018-10-06T16:02:49.585Z,3.70
2018-10-06T16:03:49.490Z,3.20
2018-10-06T16:04:49.452Z,4.10
2018-10-06T16:05:49.439Z,4.20
2018-10-06T16:06:49.429Z,3.20
2018-10-06T16:07:49.447Z,3.00
2018-10-06T16:08:49.426Z,3.00
2018-10-06T16:09:49.404Z,3.10
2018-10-06T16:10:49.413Z,3.40
2018-10-06T16:11:49.377Z,3.50
2018-10-06T16:12:49.371Z,4.30
2018-10-06T16:13:49.358Z,3.50
2018-10-06T16:14:49.354Z,3.60
2018-10-06T16:15:49.365Z,3.20
2018-10-06T16:16:49.329Z,3.10
2018-10-06T16:17:49.340Z,3.30
2018-10-06T16:18:49.306Z,3.10
2018-10-06T16:19:49.299Z,3.00
2018-10-06T16:20:49.298Z,3.20
2018-10-06T16:21:49.307Z,3.10
2018-10-06T16:22:49.267Z,3.10
2018-10-06T16:23:49.264Z,3.30
2018-10-06T16:24:49.240Z,3.10
2018-10-06T16:25:49.257Z,3.30
2018-10-06T16:26:49.286Z,3.10
2018-10-06T16:27:49.212Z,3.30
2018-10-06T16:28:49.554Z,2.90
2018-10-06T16:29:49.194Z,3.00
2018-10-06T16:30:49.196Z,2.70
2018-10-06T16:31:49.170Z,3.40
2018-10-06T16:32:49.193Z,3.20
2018-10-06T16:33:49.151Z,3.00
2018-10-06T16:34:49.148Z,3.10
2018-10-06T16:35:49.133Z,3.10
2018-10-06T16:36:49.132Z,3.00
2018-10-06T16:37:49.150Z,3.40
2018-10-06T16:38:49.103Z,3.60
2018-10-06T16:39:49.090Z,2.80
2018-10-06T16:40:49.089Z,3.60
2018-10-06T16:41:49.064Z,3.00
2018-10-06T16:42:49.063Z,3.20
2018-10-06T16:43:49.072Z,3.20
2018-10-06T16:44:49.037Z,2.90
2018-10-06T16:45:49.025Z,3.40
2018-10-06T16:46:49.020Z,3.40
2018-10-06T16:47:50.462Z,3.20
2018-10-06T16:48:49.023Z,3.60
2018-10-06T16:49:48.980Z,3.40
2018-10-06T16:50:49.034Z,3.50
2018-10-06T16:51:49.021Z,3.60
2018-10-06T16:52:48.944Z,3.40
2018-10-06T16:53:48.983Z,3.40
2018-10-06T16:54:48.934Z,3.70
2018-10-06T16:55:48.922Z,3.70
2018-10-06T16:56:48.966Z,3.60
2018-10-06T16:57:48.893Z,3.40
2018-10-06T16:58:48.893Z,3.50
2018-10-06T16:59:48.881Z,3.60
2018-10-06T17:00:48.868Z,3.50
2018-10-06T17:01:48.875Z,3.10
2018-10-06T17:02:48.935Z,3.40
2018-10-06T17:03:48.837Z,4.00
2018-10-06T17:04:48.821Z,3.70
2018-10-06T17:05:48.810Z,3.60
2018-10-06T17:06:48.801Z,3.70
2018-10-06T17:07:48.812Z,3.60
2018-10-06T17:08:48.801Z,3.70
2018-10-06T17:09:48.765Z,3.80
2018-10-06T17:10:48.745Z,3.90
2018-10-06T17:11:48.743Z,3.80
2018-10-06T17:12:48.791Z,3.60
2018-10-06T17:13:48.748Z,3.90
2018-10-06T17:14:48.737Z,4.20
2018-10-06T17:15:48.692Z,3.90
2018-10-06T17:16:48.690Z,4.10
2018-10-06T17:17:48.677Z,4.30
2018-10-06T17:18:48.659Z,3.70
2018-10-06T17:19:48.709Z,3.80
2018-10-06T17:20:48.636Z,4.30
2018-10-06T17:21:48.632Z,4.40
2018-10-06T17:22:48.617Z,4.00
2018-10-06T17:23:48.610Z,4.10
2018-10-06T17:24:48.608Z,3.90
2018-10-06T17:25:48.642Z,3.90
2018-10-06T17:26:48.576Z,4.10
2018-10-06T17:27:48.571Z,3.90
2018-10-06T17:28:48.566Z,3.60
2018-10-06T17:29:48.545Z,3.80
2018-10-06T17:30:48.542Z,4.40
2018-10-06T17:31:48.551Z,6.60
2018-10-06T17:32:48.513Z,7.70
2018-10-06T17:33:48.504Z,10.10
2018-10-06T17:34:48.482Z,12.40
2018-10-06T17:35:48.490Z,12.00
2018-10-06T17:36:48.534Z,13.20
2018-10-06T17:37:48.459Z,14.90
2018-10-06T17:38:48.515Z,15.30
2018-10-06T17:39:48.434Z,13.00
2018-10-06T17:40:48.419Z,15.10
2018-10-06T17:41:48.407Z,19.30
2018-10-06T17:42:48.455Z,30.10
2018-10-06T17:43:48.385Z,35.90
2018-10-06T17:44:48.388Z,30.70
2018-10-06T17:45:48.366Z,23.70
2018-10-06T17:46:48.364Z,26.40
2018-10-06T17:47:48.348Z,26.20
2018-10-06T17:48:48.362Z,22.10
2018-10-06T17:49:48.405Z,18.90
2018-10-06T17:50:48.499Z,16.20
2018-10-06T17:51:48.306Z,14.40
2018-10-06T17:52:48.295Z,12.60
2018-10-06T17:53:48.284Z,12.90
2018-10-06T17:54:48.311Z,12.50
2018-10-06T17:55:48.266Z,11.00
2018-10-06T17:56:48.264Z,8.50
2018-10-06T17:57:48.243Z,7.60
2018-10-06T17:58:48.272Z,8.20
2018-10-06T17:59:48.285Z,7.60
2018-10-06T18:00:48.215Z,7.60
2018-10-06T18:01:48.202Z,7.40
2018-10-06T18:02:48.192Z,6.90
2018-10-06T18:03:48.184Z,6.70
2018-10-06T18:04:48.191Z,6.60
2018-10-06T18:05:48.183Z,6.80
2018-10-06T18:06:48.139Z,6.20
2018-10-06T18:07:48.471Z,6.10
2018-10-06T18:08:48.137Z,6.10
2018-10-06T18:09:48.116Z,6.70
2018-10-06T18:10:48.124Z,6.60
2018-10-06T18:11:48.081Z,12.30
2018-10-06T18:12:48.070Z,10.40
2018-10-06T18:13:48.067Z,14.30
2018-10-06T18:14:48.048Z,12.00
2018-10-06T18:15:48.098Z,14.10
2018-10-06T18:16:48.033Z,12.60
2018-10-06T18:17:48.018Z,12.10
2018-10-06T18:18:48.019Z,11.50
2018-10-06T18:19:48.002Z,11.10
2018-10-06T18:20:47.999Z,13.50
2018-10-06T18:21:48.012Z,11.60
2018-10-06T18:22:47.974Z,11.00
2018-10-06T18:23:47.953Z,9.70
2018-10-06T18:24:47.952Z,8.80
2018-10-06T18:25:47.946Z,8.70
2018-10-06T18:26:47.994Z,8.50
2018-10-06T18:27:47.920Z,7.90
2018-10-06T18:28:47.908Z,7.90
2018-10-06T18:29:47.898Z,8.00
2018-10-06T18:30:47.885Z,6.90
2018-10-06T18:31:47.873Z,7.40
2018-10-06T18:32:47.895Z,7.00
2018-10-06T18:33:47.849Z,7.20
2018-10-06T18:34:47.842Z,6.60
2018-10-06T18:35:47.821Z,6.40
2018-10-06T18:36:47.913Z,6.60
2018-10-06T18:37:47.839Z,6.60
2018-10-06T18:38:47.800Z,7.00
2018-10-06T18:39:47.841Z,7.20
2018-10-06T18:40:47.780Z,7.70
2018-10-06T18:41:47.761Z,7.30
2018-10-06T18:42:47.780Z,8.30
2018-10-06T18:43:47.835Z,9.70
2018-10-06T18:44:47.732Z,9.30
2018-10-06T18:45:47.723Z,9.40
2018-10-06T18:46:47.723Z,9.20
2018-10-06T18:47:47.756Z,8.90
2018-10-06T18:48:47.700Z,9.10
2018-10-06T18:49:47.675Z,8.60
2018-10-06T18:50:47.675Z,9.40
2018-10-06T18:51:47.662Z,8.50
2018-10-06T18:52:47.665Z,8.30
2018-10-06T18:53:47.729Z,8.70
2018-10-06T18:54:47.638Z,7.60
2018-10-06T18:55:47.616Z,8.30
2018-10-06T18:56:47.605Z,8.00
2018-10-06T18:57:47.699Z,8.00
2018-10-06T18:58:47.577Z,7.80
2018-10-06T18:59:47.589Z,7.90
2018-10-06T19:00:47.576Z,7.80
2018-10-06T19:01:47.553Z,8.10
2018-10-06T19:02:47.532Z,7.30
2018-10-06T19:03:47.657Z,7.70
2018-10-06T19:04:47.582Z,7.30
2018-10-06T19:05:47.510Z,7.70
2018-10-06T19:06:47.504Z,7.70
2018-10-06T19:07:47.475Z,7.20
2018-10-06T19:08:47.475Z,8.10
2018-10-06T19:09:47.469Z,8.00
2018-10-06T19:10:47.475Z,7.40
2018-10-06T19:11:47.442Z,8.00
2018-10-06T19:12:47.428Z,8.40
2018-10-06T19:13:47.429Z,8.50
2018-10-06T19:14:47.415Z,9.00
2018-10-06T19:15:47.461Z,8.50
2018-10-06T19:16:47.393Z,8.70
2018-10-06T19:17:47.377Z,8.90
2018-10-06T19:18:47.355Z,8.00
2018-10-06T19:19:47.501Z,8.10
2018-10-06T19:20:47.347Z,8.80
2018-10-06T19:21:47.381Z,8.50
2018-10-06T19:22:47.365Z,8.40
2018-10-06T19:23:47.350Z,9.20
2018-10-06T19:24:47.304Z,9.40
2018-10-06T19:25:47.316Z,10.40
2018-10-06T19:26:47.268Z,10.00
2018-10-06T19:27:47.328Z,9.80
2018-10-06T19:28:47.256Z,9.80
2018-10-06T19:29:47.247Z,9.70
2018-10-06T19:30:47.226Z,9.00
2018-10-06T19:31:47.215Z,9.60
2018-10-06T19:32:47.216Z,8.10
2018-10-06T19:33:47.229Z,8.90
2018-10-06T19:34:47.215Z,8.60
2018-10-06T19:35:47.177Z,8.20
2018-10-06T19:36:47.173Z,8.00
2018-10-06T19:37:47.194Z,8.40
2018-10-06T19:38:47.212Z,8.20
2018-10-06T19:39:47.204Z,8.10
2018-10-06T19:40:47.119Z,7.90
2018-10-06T19:41:47.111Z,7.60
2018-10-06T19:42:47.115Z,7.10
2018-10-06T19:43:47.097Z,8.00
2018-10-06T19:44:47.369Z,7.50
2018-10-06T19:45:47.078Z,7.40
2018-10-06T19:46:47.067Z,7.50
2018-10-06T19:47:47.049Z,8.30
2018-10-06T19:48:47.042Z,7.70
2018-10-06T19:49:47.056Z,7.70
2018-10-06T19:50:47.053Z,8.20
